sensor_id;sensor_type;location;lat;lon;timestamp;P1;durP1;ratioP1;P2;durP2;ratioP2
76848;SDS011;65814;51.134;16.980;2023-01-25T00:00:52;42.70;;;21.60;;
76848;SDS011;65814;51.134;16.980;2023-01-25T00:03:24;39.60;;;19.90;;
76848;SDS011;65814;51.134;16.980;2023-01-25T00:05:59;39.50;;;20.00;;
76848;SDS011;65814;51.134;16.980;2023-01-25T00:08:28;46.20;;;21.30;;
76848;SDS011;65814;51.134;16.980;2023-01-25T00:10:56;53.50;;;27.60;;
76848;SDS011;65814;51.134;16.980;2023-01-25T00:13:25;60.10;;;25.20;;
76848;SDS011;65814;51.134;16.980;2023-01-25T00:15:59;52.60;;;24.50;;
76848;SDS011;65814;51.134;16.980;2023-01-25T00:18:30;55.00;;;24.80;;
76848;SDS011;65814;51.134;16.980;2023-01-25T00:20:58;55.70;;;27.10;;
76848;SDS011;65814;51.134;16.980;2023-01-25T00:23:26;54.70;;;26.10;;
76848;SDS011;65814;51.134;16.980;2023-01-25T00:25:57;53.20;;;23.30;;
76848;SDS011;65814;51.134;16.980;2023-01-25T00:28:25;47.10;;;22.20;;
76848;SDS011;65814;51.134;16.980;2023-01-25T00:30:57;59.60;;;26.80;;
76848;SDS011;65814;51.134;16.980;2023-01-25T00:39:04;42.60;;;21.90;;
76848;SDS011;65814;51.134;16.980;2023-01-25T00:41:33;39.90;;;19.90;;
76848;SDS011;65814;51.134;16.980;2023-01-25T00:44:01;38.50;;;18.70;;
76848;SDS011;65814;51.134;16.980;2023-01-25T00:46:29;36.10;;;17.00;;
76848;SDS011;65814;51.134;16.980;2023-01-25T00:48:57;33.60;;;17.20;;
76848;SDS011;65814;51.134;16.980;2023-01-25T00:51:25;39.40;;;19.40;;
76848;SDS011;65814;51.134;16.980;2023-01-25T00:53:53;40.00;;;20.10;;
76848;SDS011;65814;51.134;16.980;2023-01-25T00:56:21;40.20;;;18.60;;
76848;SDS011;65814;51.134;16.980;2023-01-25T00:58:49;44.10;;;18.70;;
76848;SDS011;65814;51.134;16.980;2023-01-25T01:01:17;38.00;;;16.50;;
76848;SDS011;65814;51.134;16.980;2023-01-25T01:03:45;35.50;;;16.80;;
76848;SDS011;65814;51.134;16.980;2023-01-25T01:06:14;36.50;;;16.50;;
76848;SDS011;65814;51.134;16.980;2023-01-25T01:08:42;27.00;;;15.60;;
76848;SDS011;65814;51.134;16.980;2023-01-25T01:11:10;34.50;;;16.50;;
76848;SDS011;65814;51.134;16.980;2023-01-25T01:13:39;37.10;;;17.90;;
76848;SDS011;65814;51.134;16.980;2023-01-25T01:16:09;33.30;;;18.90;;
76848;SDS011;65814;51.134;16.980;2023-01-25T01:18:42;35.70;;;16.60;;
76848;SDS011;65814;51.134;16.980;2023-01-25T01:21:12;32.00;;;14.30;;
76848;SDS011;65814;51.134;16.980;2023-01-25T01:23:40;27.00;;;16.30;;
76848;SDS011;65814;51.134;16.980;2023-01-25T01:26:09;28.60;;;15.10;;
76848;SDS011;65814;51.134;16.980;2023-01-25T01:28:39;28.30;;;13.70;;
76848;SDS011;65814;51.134;16.980;2023-01-25T01:31:11;27.40;;;14.00;;
76848;SDS011;65814;51.134;16.980;2023-01-25T01:36:09;25.40;;;11.80;;
76848;SDS011;65814;51.134;16.980;2023-01-25T01:38:39;25.80;;;12.00;;
76848;SDS011;65814;51.134;16.980;2023-01-25T01:41:08;21.40;;;11.00;;
76848;SDS011;65814;51.134;16.980;2023-01-25T01:43:37;23.20;;;11.10;;
76848;SDS011;65814;51.134;16.980;2023-01-25T01:51:48;16.90;;;8.90;;
76848;SDS011;65814;51.134;16.980;2023-01-25T01:59:23;18.10;;;10.50;;
76848;SDS011;65814;51.134;16.980;2023-01-25T02:02:15;19.00;;;9.30;;
76848;SDS011;65814;51.134;16.980;2023-01-25T02:04:44;16.00;;;8.40;;
76848;SDS011;65814;51.134;16.980;2023-01-25T02:07:15;17.50;;;8.70;;
76848;SDS011;65814;51.134;16.980;2023-01-25T02:09:50;16.50;;;9.00;;
76848;SDS011;65814;51.134;16.980;2023-01-25T02:12:18;20.90;;;9.60;;
76848;SDS011;65814;51.134;16.980;2023-01-25T02:14:48;21.30;;;11.10;;
76848;SDS011;65814;51.134;16.980;2023-01-25T02:17:19;20.20;;;10.90;;
76848;SDS011;65814;51.134;16.980;2023-01-25T02:25:44;17.70;;;9.90;;
76848;SDS011;65814;51.134;16.980;2023-01-25T02:28:14;16.30;;;9.20;;
76848;SDS011;65814;51.134;16.980;2023-01-25T02:30:45;19.30;;;10.10;;
76848;SDS011;65814;51.134;16.980;2023-01-25T02:33:14;15.80;;;9.60;;
76848;SDS011;65814;51.134;16.980;2023-01-25T02:35:43;21.40;;;11.80;;
76848;SDS011;65814;51.134;16.980;2023-01-25T02:38:19;16.00;;;9.60;;
76848;SDS011;65814;51.134;16.980;2023-01-25T02:40:49;18.20;;;9.30;;
76848;SDS011;65814;51.134;16.980;2023-01-25T02:45:49;17.90;;;10.10;;
76848;SDS011;65814;51.134;16.980;2023-01-25T02:48:19;18.40;;;11.00;;
76848;SDS011;65814;51.134;16.980;2023-01-25T02:50:50;19.00;;;9.40;;
76848;SDS011;65814;51.134;16.980;2023-01-25T02:53:18;18.40;;;10.00;;
76848;SDS011;65814;51.134;16.980;2023-01-25T02:55:46;24.10;;;12.50;;
76848;SDS011;65814;51.134;16.980;2023-01-25T02:58:14;21.40;;;12.00;;
76848;SDS011;65814;51.134;16.980;2023-01-25T03:00:42;23.40;;;11.30;;
76848;SDS011;65814;51.134;16.980;2023-01-25T03:03:10;21.90;;;11.50;;
76848;SDS011;65814;51.134;16.980;2023-01-25T03:05:38;19.50;;;11.80;;
76848;SDS011;65814;51.134;16.980;2023-01-25T03:08:06;21.20;;;12.60;;
76848;SDS011;65814;51.134;16.980;2023-01-25T03:10:34;21.40;;;11.20;;
76848;SDS011;65814;51.134;16.980;2023-01-25T03:13:02;19.40;;;11.10;;
76848;SDS011;65814;51.134;16.980;2023-01-25T03:15:30;25.20;;;12.70;;
76848;SDS011;65814;51.134;16.980;2023-01-25T03:17:58;22.20;;;12.70;;
76848;SDS011;65814;51.134;16.980;2023-01-25T03:20:26;21.80;;;11.00;;
76848;SDS011;65814;51.134;16.980;2023-01-25T03:22:54;20.20;;;10.60;;
76848;SDS011;65814;51.134;16.980;2023-01-25T03:25:22;19.70;;;10.70;;
76848;SDS011;65814;51.134;16.980;2023-01-25T03:27:50;21.10;;;11.90;;
76848;SDS011;65814;51.134;16.980;2023-01-25T03:30:18;20.60;;;11.10;;
76848;SDS011;65814;51.134;16.980;2023-01-25T03:32:46;22.70;;;11.30;;
76848;SDS011;65814;51.134;16.980;2023-01-25T03:35:13;25.90;;;12.90;;
76848;SDS011;65814;51.134;16.980;2023-01-25T03:37:41;27.80;;;14.00;;
76848;SDS011;65814;51.134;16.980;2023-01-25T03:40:10;21.40;;;10.80;;
76848;SDS011;65814;51.134;16.980;2023-01-25T03:42:38;21.20;;;11.50;;
76848;SDS011;65814;51.134;16.980;2023-01-25T03:45:06;21.00;;;10.60;;
76848;SDS011;65814;51.134;16.980;2023-01-25T03:47:34;23.40;;;11.50;;
76848;SDS011;65814;51.134;16.980;2023-01-25T03:50:02;27.60;;;12.30;;
76848;SDS011;65814;51.134;16.980;2023-01-25T03:52:33;27.80;;;13.80;;
76848;SDS011;65814;51.134;16.980;2023-01-25T03:55:11;28.40;;;14.20;;
76848;SDS011;65814;51.134;16.980;2023-01-25T03:57:40;28.20;;;15.90;;
76848;SDS011;65814;51.134;16.980;2023-01-25T04:00:08;23.50;;;11.80;;
76848;SDS011;65814;51.134;16.980;2023-01-25T04:02:39;22.20;;;11.10;;
76848;SDS011;65814;51.134;16.980;2023-01-25T04:05:07;23.80;;;11.80;;
76848;SDS011;65814;51.134;16.980;2023-01-25T04:07:36;21.40;;;10.60;;
76848;SDS011;65814;51.134;16.980;2023-01-25T04:10:04;20.70;;;9.20;;
76848;SDS011;65814;51.134;16.980;2023-01-25T04:12:32;22.90;;;11.00;;
76848;SDS011;65814;51.134;16.980;2023-01-25T04:15:00;24.70;;;12.50;;
76848;SDS011;65814;51.134;16.980;2023-01-25T04:17:28;26.70;;;12.60;;
76848;SDS011;65814;51.134;16.980;2023-01-25T04:19:56;25.10;;;13.40;;
76848;SDS011;65814;51.134;16.980;2023-01-25T04:22:24;20.60;;;10.30;;
76848;SDS011;65814;51.134;16.980;2023-01-25T04:24:52;23.00;;;10.20;;
76848;SDS011;65814;51.134;16.980;2023-01-25T04:27:20;20.60;;;10.50;;
76848;SDS011;65814;51.134;16.980;2023-01-25T04:29:48;24.30;;;11.30;;
76848;SDS011;65814;51.134;16.980;2023-01-25T04:32:15;25.30;;;11.30;;
76848;SDS011;65814;51.134;16.980;2023-01-25T04:34:43;29.10;;;14.30;;
76848;SDS011;65814;51.134;16.980;2023-01-25T04:37:12;27.30;;;13.50;;
76848;SDS011;65814;51.134;16.980;2023-01-25T04:39:40;22.50;;;10.90;;
76848;SDS011;65814;51.134;16.980;2023-01-25T04:42:08;25.90;;;12.00;;
76848;SDS011;65814;51.134;16.980;2023-01-25T04:44:36;21.90;;;11.10;;
76848;SDS011;65814;51.134;16.980;2023-01-25T04:47:03;27.20;;;12.50;;
76848;SDS011;65814;51.134;16.980;2023-01-25T04:49:31;20.50;;;11.40;;
76848;SDS011;65814;51.134;16.980;2023-01-25T04:51:59;24.60;;;11.10;;
76848;SDS011;65814;51.134;16.980;2023-01-25T04:54:30;28.20;;;13.60;;
76848;SDS011;65814;51.134;16.980;2023-01-25T04:56:58;27.90;;;14.20;;
76848;SDS011;65814;51.134;16.980;2023-01-25T04:59:26;26.70;;;13.60;;
76848;SDS011;65814;51.134;16.980;2023-01-25T05:01:54;24.30;;;11.70;;
76848;SDS011;65814;51.134;16.980;2023-01-25T05:04:22;23.40;;;11.90;;
76848;SDS011;65814;51.134;16.980;2023-01-25T05:06:49;22.40;;;11.40;;
76848;SDS011;65814;51.134;16.980;2023-01-25T05:09:18;24.80;;;13.20;;
76848;SDS011;65814;51.134;16.980;2023-01-25T05:11:47;30.30;;;14.00;;
76848;SDS011;65814;51.134;16.980;2023-01-25T05:14:15;31.00;;;15.90;;
76848;SDS011;65814;51.134;16.980;2023-01-25T05:16:43;28.90;;;13.20;;
76848;SDS011;65814;51.134;16.980;2023-01-25T05:19:11;26.50;;;12.40;;
76848;SDS011;65814;51.134;16.980;2023-01-25T05:21:39;22.90;;;12.00;;
76848;SDS011;65814;51.134;16.980;2023-01-25T05:24:27;25.30;;;11.90;;
76848;SDS011;65814;51.134;16.980;2023-01-25T05:26:56;24.50;;;11.90;;
76848;SDS011;65814;51.134;16.980;2023-01-25T05:29:32;24.30;;;11.50;;
76848;SDS011;65814;51.134;16.980;2023-01-25T05:34:42;27.60;;;12.90;;
76848;SDS011;65814;51.134;16.980;2023-01-25T05:37:11;25.90;;;13.20;;
76848;SDS011;65814;51.134;16.980;2023-01-25T05:39:40;23.10;;;11.00;;
76848;SDS011;65814;51.134;16.980;2023-01-25T05:42:12;25.60;;;13.30;;
76848;SDS011;65814;51.134;16.980;2023-01-25T05:44:41;25.20;;;14.10;;
76848;SDS011;65814;51.134;16.980;2023-01-25T05:47:14;24.30;;;11.30;;
76848;SDS011;65814;51.134;16.980;2023-01-25T05:49:43;23.60;;;11.90;;
76848;SDS011;65814;51.134;16.980;2023-01-25T05:52:12;27.30;;;12.10;;
76848;SDS011;65814;51.134;16.980;2023-01-25T05:54:41;24.60;;;10.80;;
76848;SDS011;65814;51.134;16.980;2023-01-25T05:57:09;25.50;;;12.00;;
76848;SDS011;65814;51.134;16.980;2023-01-25T05:59:37;27.30;;;14.00;;
76848;SDS011;65814;51.134;16.980;2023-01-25T06:02:05;23.20;;;13.10;;
76848;SDS011;65814;51.134;16.980;2023-01-25T06:04:33;23.50;;;13.00;;
76848;SDS011;65814;51.134;16.980;2023-01-25T06:07:01;27.60;;;13.60;;
76848;SDS011;65814;51.134;16.980;2023-01-25T06:09:29;20.70;;;11.10;;
76848;SDS011;65814;51.134;16.980;2023-01-25T06:11:57;22.80;;;12.20;;
76848;SDS011;65814;51.134;16.980;2023-01-25T06:14:25;28.50;;;13.30;;
76848;SDS011;65814;51.134;16.980;2023-01-25T06:16:53;26.20;;;13.30;;
76848;SDS011;65814;51.134;16.980;2023-01-25T06:19:21;31.10;;;13.20;;
76848;SDS011;65814;51.134;16.980;2023-01-25T06:21:49;25.40;;;12.70;;
76848;SDS011;65814;51.134;16.980;2023-01-25T06:24:17;25.10;;;13.40;;
76848;SDS011;65814;51.134;16.980;2023-01-25T06:26:45;27.20;;;12.50;;
76848;SDS011;65814;51.134;16.980;2023-01-25T06:29:13;24.40;;;12.60;;
76848;SDS011;65814;51.134;16.980;2023-01-25T06:31:41;28.40;;;12.90;;
76848;SDS011;65814;51.134;16.980;2023-01-25T06:34:09;24.60;;;11.50;;
76848;SDS011;65814;51.134;16.980;2023-01-25T06:36:37;27.00;;;12.90;;
76848;SDS011;65814;51.134;16.980;2023-01-25T06:39:05;24.00;;;12.60;;
76848;SDS011;65814;51.134;16.980;2023-01-25T06:41:33;29.40;;;14.90;;
76848;SDS011;65814;51.134;16.980;2023-01-25T06:44:01;29.00;;;12.80;;
76848;SDS011;65814;51.134;16.980;2023-01-25T06:46:30;26.20;;;13.30;;
76848;SDS011;65814;51.134;16.980;2023-01-25T06:48:59;24.00;;;12.00;;
76848;SDS011;65814;51.134;16.980;2023-01-25T06:51:27;22.60;;;8.90;;
76848;SDS011;65814;51.134;16.980;2023-01-25T06:53:55;19.50;;;9.00;;
76848;SDS011;65814;51.134;16.980;2023-01-25T06:56:23;20.90;;;9.70;;
76848;SDS011;65814;51.134;16.980;2023-01-25T06:58:53;22.70;;;9.70;;
76848;SDS011;65814;51.134;16.980;2023-01-25T07:01:22;29.10;;;11.90;;
76848;SDS011;65814;51.134;16.980;2023-01-25T07:03:54;23.60;;;11.70;;
76848;SDS011;65814;51.134;16.980;2023-01-25T07:06:24;20.80;;;10.90;;
76848;SDS011;65814;51.134;16.980;2023-01-25T07:08:53;23.90;;;12.00;;
76848;SDS011;65814;51.134;16.980;2023-01-25T07:11:21;20.90;;;10.60;;
76848;SDS011;65814;51.134;16.980;2023-01-25T07:13:49;23.30;;;12.10;;
76848;SDS011;65814;51.134;16.980;2023-01-25T07:16:17;21.60;;;11.70;;
76848;SDS011;65814;51.134;16.980;2023-01-25T07:18:46;26.10;;;12.50;;
76848;SDS011;65814;51.134;16.980;2023-01-25T07:21:15;25.70;;;11.60;;
76848;SDS011;65814;51.134;16.980;2023-01-25T07:23:45;26.90;;;13.40;;
76848;SDS011;65814;51.134;16.980;2023-01-25T07:28:44;23.50;;;14.10;;
76848;SDS011;65814;51.134;16.980;2023-01-25T07:31:12;22.60;;;11.60;;
76848;SDS011;65814;51.134;16.980;2023-01-25T07:33:42;24.00;;;11.50;;
76848;SDS011;65814;51.134;16.980;2023-01-25T07:36:10;23.30;;;11.70;;
76848;SDS011;65814;51.134;16.980;2023-01-25T07:38:38;29.20;;;14.40;;
76848;SDS011;65814;51.134;16.980;2023-01-25T07:41:06;27.10;;;13.00;;
76848;SDS011;65814;51.134;16.980;2023-01-25T07:43:34;23.50;;;11.90;;
76848;SDS011;65814;51.134;16.980;2023-01-25T07:46:03;29.40;;;14.60;;
76848;SDS011;65814;51.134;16.980;2023-01-25T07:48:38;26.20;;;13.90;;
76848;SDS011;65814;51.134;16.980;2023-01-25T07:51:08;27.90;;;13.80;;
76848;SDS011;65814;51.134;16.980;2023-01-25T07:53:41;29.40;;;13.00;;
76848;SDS011;65814;51.134;16.980;2023-01-25T07:56:10;25.00;;;12.10;;
76848;SDS011;65814;51.134;16.980;2023-01-25T07:58:39;23.60;;;12.10;;
76848;SDS011;65814;51.134;16.980;2023-01-25T08:03:43;19.00;;;12.90;;
76848;SDS011;65814;51.134;16.980;2023-01-25T08:06:11;26.50;;;13.30;;
76848;SDS011;65814;51.134;16.980;2023-01-25T08:08:41;28.00;;;14.30;;
76848;SDS011;65814;51.134;16.980;2023-01-25T08:11:15;25.10;;;12.30;;
76848;SDS011;65814;51.134;16.980;2023-01-25T08:13:45;21.60;;;10.70;;
76848;SDS011;65814;51.134;16.980;2023-01-25T08:16:17;21.20;;;11.40;;
76848;SDS011;65814;51.134;16.980;2023-01-25T08:18:47;24.20;;;12.20;;
76848;SDS011;65814;51.134;16.980;2023-01-25T08:21:16;22.40;;;12.20;;
76848;SDS011;65814;51.134;16.980;2023-01-25T08:23:44;23.20;;;11.30;;
76848;SDS011;65814;51.134;16.980;2023-01-25T08:26:13;21.60;;;11.60;;
76848;SDS011;65814;51.134;16.980;2023-01-25T08:28:43;22.80;;;11.70;;
76848;SDS011;65814;51.134;16.980;2023-01-25T08:31:12;22.80;;;13.10;;
76848;SDS011;65814;51.134;16.980;2023-01-25T08:33:42;24.40;;;12.30;;
76848;SDS011;65814;51.134;16.980;2023-01-25T08:36:13;20.80;;;11.90;;
76848;SDS011;65814;51.134;16.980;2023-01-25T08:38:42;24.00;;;12.90;;
76848;SDS011;65814;51.134;16.980;2023-01-25T08:41:10;19.30;;;10.20;;
76848;SDS011;65814;51.134;16.980;2023-01-25T08:43:41;23.10;;;11.60;;
76848;SDS011;65814;51.134;16.980;2023-01-25T08:46:10;19.40;;;10.30;;
76848;SDS011;65814;51.134;16.980;2023-01-25T08:48:38;22.00;;;10.00;;
76848;SDS011;65814;51.134;16.980;2023-01-25T08:51:07;21.90;;;11.20;;
76848;SDS011;65814;51.134;16.980;2023-01-25T08:53:36;22.20;;;12.30;;
76848;SDS011;65814;51.134;16.980;2023-01-25T08:56:04;18.00;;;9.70;;
76848;SDS011;65814;51.134;16.980;2023-01-25T08:58:35;23.80;;;11.00;;
76848;SDS011;65814;51.134;16.980;2023-01-25T09:01:06;20.80;;;9.90;;
76848;SDS011;65814;51.134;16.980;2023-01-25T09:03:36;18.80;;;10.00;;
76848;SDS011;65814;51.134;16.980;2023-01-25T09:06:05;24.60;;;9.70;;
76848;SDS011;65814;51.134;16.980;2023-01-25T09:08:34;19.30;;;10.30;;
76848;SDS011;65814;51.134;16.980;2023-01-25T09:11:08;20.40;;;10.80;;
76848;SDS011;65814;51.134;16.980;2023-01-25T09:13:41;19.10;;;10.40;;
76848;SDS011;65814;51.134;16.980;2023-01-25T09:16:13;22.20;;;10.70;;
76848;SDS011;65814;51.134;16.980;2023-01-25T09:18:43;17.40;;;8.70;;
76848;SDS011;65814;51.134;16.980;2023-01-25T09:21:12;17.10;;;8.70;;
76848;SDS011;65814;51.134;16.980;2023-01-25T09:23:42;18.50;;;9.20;;
76848;SDS011;65814;51.134;16.980;2023-01-25T09:26:24;18.00;;;9.50;;
76848;SDS011;65814;51.134;16.980;2023-01-25T09:28:52;14.90;;;9.20;;
76848;SDS011;65814;51.134;16.980;2023-01-25T09:31:21;19.90;;;10.10;;
76848;SDS011;65814;51.134;16.980;2023-01-25T09:33:51;16.00;;;10.00;;
76848;SDS011;65814;51.134;16.980;2023-01-25T09:36:19;17.50;;;10.30;;
76848;SDS011;65814;51.134;16.980;2023-01-25T09:38:47;21.30;;;11.90;;
76848;SDS011;65814;51.134;16.980;2023-01-25T09:44:23;20.80;;;9.60;;
76848;SDS011;65814;51.134;16.980;2023-01-25T09:47:03;16.60;;;9.50;;
76848;SDS011;65814;51.134;16.980;2023-01-25T09:55:40;19.50;;;10.90;;
76848;SDS011;65814;51.134;16.980;2023-01-25T09:58:13;17.00;;;10.20;;
76848;SDS011;65814;51.134;16.980;2023-01-25T10:00:43;16.10;;;8.60;;
76848;SDS011;65814;51.134;16.980;2023-01-25T10:05:45;15.80;;;8.60;;
76848;SDS011;65814;51.134;16.980;2023-01-25T10:13:57;19.00;;;8.60;;
76848;SDS011;65814;51.134;16.980;2023-01-25T10:16:28;21.40;;;11.10;;
76848;SDS011;65814;51.134;16.980;2023-01-25T10:19:03;18.00;;;10.60;;
76848;SDS011;65814;51.134;16.980;2023-01-25T10:21:56;14.70;;;7.80;;
76848;SDS011;65814;51.134;16.980;2023-01-25T10:24:56;12.60;;;7.30;;
76848;SDS011;65814;51.134;16.980;2023-01-25T10:27:59;16.30;;;8.90;;
76848;SDS011;65814;51.134;16.980;2023-01-25T10:30:46;15.00;;;7.80;;
76848;SDS011;65814;51.134;16.980;2023-01-25T10:33:23;14.10;;;7.10;;
76848;SDS011;65814;51.134;16.980;2023-01-25T10:35:53;12.30;;;6.70;;
76848;SDS011;65814;51.134;16.980;2023-01-25T10:41:03;10.10;;;5.80;;
76848;SDS011;65814;51.134;16.980;2023-01-25T10:43:55;17.20;;;13.80;;
76848;SDS011;65814;51.134;16.980;2023-01-25T10:46:43;11.30;;;7.00;;
76848;SDS011;65814;51.134;16.980;2023-01-25T10:49:40;11.30;;;6.90;;
76848;SDS011;65814;51.134;16.980;2023-01-25T10:52:20;10.30;;;6.50;;
76848;SDS011;65814;51.134;16.980;2023-01-25T10:55:03;12.80;;;8.10;;
76848;SDS011;65814;51.134;16.980;2023-01-25T10:57:53;14.70;;;9.90;;
76848;SDS011;65814;51.134;16.980;2023-01-25T11:00:26;13.70;;;9.20;;
76848;SDS011;65814;51.134;16.980;2023-01-25T11:02:57;23.80;;;12.90;;
76848;SDS011;65814;51.134;16.980;2023-01-25T11:05:35;18.10;;;9.30;;
76848;SDS011;65814;51.134;16.980;2023-01-25T11:10:50;26.40;;;12.50;;
76848;SDS011;65814;51.134;16.980;2023-01-25T11:13:19;21.00;;;12.00;;
76848;SDS011;65814;51.134;16.980;2023-01-25T11:18:33;19.80;;;11.40;;
76848;SDS011;65814;51.134;16.980;2023-01-25T11:21:03;25.70;;;12.50;;
76848;SDS011;65814;51.134;16.980;2023-01-25T11:23:31;24.00;;;13.00;;
76848;SDS011;65814;51.134;16.980;2023-01-25T11:28:42;25.70;;;13.70;;
76848;SDS011;65814;51.134;16.980;2023-01-25T11:31:12;18.50;;;11.90;;
76848;SDS011;65814;51.134;16.980;2023-01-25T11:33:42;20.40;;;11.90;;
76848;SDS011;65814;51.134;16.980;2023-01-25T11:38:57;21.20;;;12.50;;
76848;SDS011;65814;51.134;16.980;2023-01-25T11:58:06;22.10;;;11.30;;
76848;SDS011;65814;51.134;16.980;2023-01-25T12:13:59;17.70;;;9.40;;
76848;SDS011;65814;51.134;16.980;2023-01-25T12:22:16;16.10;;;10.20;;
76848;SDS011;65814;51.134;16.980;2023-01-25T12:33:29;16.90;;;8.00;;
76848;SDS011;65814;51.134;16.980;2023-01-25T12:36:21;17.20;;;10.10;;
76848;SDS011;65814;51.134;16.980;2023-01-25T12:39:00;14.50;;;7.70;;
76848;SDS011;65814;51.134;16.980;2023-01-25T12:41:44;12.70;;;7.70;;
76848;SDS011;65814;51.134;16.980;2023-01-25T12:46:59;12.40;;;7.60;;
76848;SDS011;65814;51.134;16.980;2023-01-25T12:49:34;12.30;;;7.20;;
76848;SDS011;65814;51.134;16.980;2023-01-25T12:52:07;11.40;;;7.20;;
76848;SDS011;65814;51.134;16.980;2023-01-25T12:54:48;12.80;;;7.80;;
76848;SDS011;65814;51.134;16.980;2023-01-25T13:00:04;13.60;;;8.40;;
76848;SDS011;65814;51.134;16.980;2023-01-25T13:06:08;28.90;;;14.10;;
76848;SDS011;65814;51.134;16.980;2023-01-25T13:08:48;36.20;;;18.70;;
76848;SDS011;65814;51.134;16.980;2023-01-25T13:11:24;28.30;;;13.70;;
76848;SDS011;65814;51.134;16.980;2023-01-25T13:16:44;13.90;;;8.80;;
76848;SDS011;65814;51.134;16.980;2023-01-25T13:22:04;17.20;;;8.80;;
76848;SDS011;65814;51.134;16.980;2023-01-25T13:24:32;19.70;;;11.00;;
76848;SDS011;65814;51.134;16.980;2023-01-25T13:27:03;19.60;;;10.10;;
76848;SDS011;65814;51.134;16.980;2023-01-25T13:32:02;16.60;;;8.90;;
76848;SDS011;65814;51.134;16.980;2023-01-25T13:37:13;14.50;;;7.90;;
76848;SDS011;65814;51.134;16.980;2023-01-25T13:39:46;15.10;;;8.40;;
76848;SDS011;65814;51.134;16.980;2023-01-25T13:42:23;13.80;;;7.00;;
76848;SDS011;65814;51.134;16.980;2023-01-25T13:47:59;15.10;;;9.10;;
76848;SDS011;65814;51.134;16.980;2023-01-25T13:50:33;15.30;;;8.60;;
76848;SDS011;65814;51.134;16.980;2023-01-25T13:53:12;13.20;;;8.20;;
76848;SDS011;65814;51.134;16.980;2023-01-25T13:55:48;13.40;;;8.00;;
76848;SDS011;65814;51.134;16.980;2023-01-25T14:00:52;14.10;;;8.70;;
76848;SDS011;65814;51.134;16.980;2023-01-25T14:03:27;14.10;;;8.40;;
76848;SDS011;65814;51.134;16.980;2023-01-25T14:05:56;17.80;;;10.00;;
76848;SDS011;65814;51.134;16.980;2023-01-25T14:08:25;17.20;;;10.40;;
76848;SDS011;65814;51.134;16.980;2023-01-25T14:10:54;20.10;;;11.00;;
76848;SDS011;65814;51.134;16.980;2023-01-25T14:13:23;15.30;;;8.80;;
76848;SDS011;65814;51.134;16.980;2023-01-25T14:18:25;18.80;;;9.10;;
76848;SDS011;65814;51.134;16.980;2023-01-25T14:21:09;16.10;;;8.90;;
76848;SDS011;65814;51.134;16.980;2023-01-25T14:23:39;17.10;;;9.80;;
76848;SDS011;65814;51.134;16.980;2023-01-25T14:26:18;16.60;;;9.00;;
76848;SDS011;65814;51.134;16.980;2023-01-25T14:28:51;16.20;;;10.30;;
76848;SDS011;65814;51.134;16.980;2023-01-25T14:31:30;17.30;;;10.40;;
76848;SDS011;65814;51.134;16.980;2023-01-25T14:34:01;18.80;;;12.50;;
76848;SDS011;65814;51.134;16.980;2023-01-25T14:36:32;16.70;;;10.40;;
76848;SDS011;65814;51.134;16.980;2023-01-25T14:39:12;16.70;;;10.10;;
76848;SDS011;65814;51.134;16.980;2023-01-25T14:41:48;18.80;;;10.50;;
76848;SDS011;65814;51.134;16.980;2023-01-25T14:44:28;17.40;;;9.90;;
76848;SDS011;65814;51.134;16.980;2023-01-25T14:49:46;15.20;;;9.30;;
76848;SDS011;65814;51.134;16.980;2023-01-25T14:52:18;16.50;;;9.00;;
76848;SDS011;65814;51.134;16.980;2023-01-25T15:00:16;21.20;;;11.50;;
76848;SDS011;65814;51.134;16.980;2023-01-25T15:02:48;17.20;;;9.90;;
76848;SDS011;65814;51.134;16.980;2023-01-25T15:07:51;17.00;;;10.60;;
76848;SDS011;65814;51.134;16.980;2023-01-25T15:10:30;15.70;;;9.60;;
76848;SDS011;65814;51.134;16.980;2023-01-25T15:21:12;18.80;;;10.00;;
76848;SDS011;65814;51.134;16.980;2023-01-25T15:23:40;20.70;;;10.50;;
76848;SDS011;65814;51.134;16.980;2023-01-25T15:26:19;16.40;;;11.10;;
76848;SDS011;65814;51.134;16.980;2023-01-25T15:28:49;17.50;;;9.80;;
76848;SDS011;65814;51.134;16.980;2023-01-25T15:31:19;17.30;;;10.80;;
76848;SDS011;65814;51.134;16.980;2023-01-25T15:33:55;18.40;;;10.30;;
76848;SDS011;65814;51.134;16.980;2023-01-25T15:36:23;15.80;;;9.30;;
76848;SDS011;65814;51.134;16.980;2023-01-25T15:38:52;15.40;;;8.60;;
76848;SDS011;65814;51.134;16.980;2023-01-25T15:41:20;15.70;;;8.40;;
76848;SDS011;65814;51.134;16.980;2023-01-25T15:43:48;17.90;;;10.00;;
76848;SDS011;65814;51.134;16.980;2023-01-25T15:46:18;14.50;;;9.20;;
76848;SDS011;65814;51.134;16.980;2023-01-25T15:48:50;14.30;;;8.10;;
76848;SDS011;65814;51.134;16.980;2023-01-25T15:51:19;14.80;;;9.30;;
76848;SDS011;65814;51.134;16.980;2023-01-25T15:53:47;15.60;;;9.00;;
76848;SDS011;65814;51.134;16.980;2023-01-25T15:56:20;18.10;;;9.50;;
76848;SDS011;65814;51.134;16.980;2023-01-25T15:58:53;16.90;;;9.60;;
76848;SDS011;65814;51.134;16.980;2023-01-25T16:01:24;18.90;;;11.30;;
76848;SDS011;65814;51.134;16.980;2023-01-25T16:03:58;17.40;;;10.70;;
76848;SDS011;65814;51.134;16.980;2023-01-25T16:09:22;19.50;;;10.40;;
76848;SDS011;65814;51.134;16.980;2023-01-25T16:11:58;21.10;;;10.60;;
76848;SDS011;65814;51.134;16.980;2023-01-25T16:14:27;20.10;;;11.40;;
76848;SDS011;65814;51.134;16.980;2023-01-25T16:17:02;93.10;;;46.40;;
76848;SDS011;65814;51.134;16.980;2023-01-25T16:19:32;31.10;;;17.40;;
76848;SDS011;65814;51.134;16.980;2023-01-25T16:22:00;28.50;;;16.00;;
76848;SDS011;65814;51.134;16.980;2023-01-25T16:24:28;27.00;;;13.70;;
76848;SDS011;65814;51.134;16.980;2023-01-25T16:26:57;17.40;;;10.30;;
76848;SDS011;65814;51.134;16.980;2023-01-25T16:29:26;17.60;;;10.40;;
76848;SDS011;65814;51.134;16.980;2023-01-25T16:31:54;22.20;;;10.90;;
76848;SDS011;65814;51.134;16.980;2023-01-25T16:34:22;19.90;;;10.50;;
76848;SDS011;65814;51.134;16.980;2023-01-25T16:36:50;16.00;;;9.80;;
76848;SDS011;65814;51.134;16.980;2023-01-25T16:39:20;20.10;;;10.70;;
76848;SDS011;65814;51.134;16.980;2023-01-25T16:41:50;14.70;;;8.60;;
76848;SDS011;65814;51.134;16.980;2023-01-25T16:44:18;18.30;;;9.40;;
76848;SDS011;65814;51.134;16.980;2023-01-25T16:46:46;20.00;;;9.80;;
76848;SDS011;65814;51.134;16.980;2023-01-25T16:49:26;17.70;;;9.40;;
76848;SDS011;65814;51.134;16.980;2023-01-25T16:51:54;17.30;;;9.10;;
76848;SDS011;65814;51.134;16.980;2023-01-25T16:54:23;18.30;;;9.40;;
76848;SDS011;65814;51.134;16.980;2023-01-25T16:56:52;19.00;;;10.00;;
76848;SDS011;65814;51.134;16.980;2023-01-25T16:59:21;19.50;;;10.20;;
76848;SDS011;65814;51.134;16.980;2023-01-25T17:01:50;18.10;;;9.80;;
76848;SDS011;65814;51.134;16.980;2023-01-25T17:04:18;18.30;;;10.50;;
76848;SDS011;65814;51.134;16.980;2023-01-25T17:06:47;17.90;;;11.20;;
76848;SDS011;65814;51.134;16.980;2023-01-25T17:09:16;17.50;;;10.60;;
76848;SDS011;65814;51.134;16.980;2023-01-25T17:11:51;17.90;;;9.50;;
76848;SDS011;65814;51.134;16.980;2023-01-25T17:14:20;16.40;;;9.30;;